Time;durP1;ratioP1;P1;durP2;ratioP2;P2;SDS_P1;SDS_P2;PMS_P1;PMS_P2;Temp;Humidity;BMP_temperature;BMP_pressure;BME280_temperature;BME280_humidity;BME280_pressure;Samples;Min_cycle;Max_cycle;Signal;HPM_P1;HPM_P2
2022/11/14 00:02:02;;;;;;;23.27;10.17;;;6.60;99.90;;;;;;4982092;28;20054;-69
2022/11/14 00:04:28;;;;;;;23.23;9.70;;;6.70;99.90;;;;;;4982333;28;20129;-69
2022/11/14 00:06:54;;;;;;;22.47;10.17;;;6.70;99.90;;;;;;4963944;28;20431;-69
2022/11/14 00:09:23;;;;;;;26.90;10.57;;;6.70;99.90;;;;;;4980616;28;20492;-69
2022/11/14 00:11:48;;;;;;;23.05;9.75;;;6.70;99.90;;;;;;4982317;28;20412;-69
2022/11/14 00:14:14;;;;;;;23.53;9.00;;;6.80;99.90;;;;;;4976580;28;20034;-69
2022/11/14 00:16:39;;;;;;;24.63;10.53;;;6.80;99.90;;;;;;4982093;28;20057;-69
2022/11/14 00:19:05;;;;;;;20.37;10.37;;;6.80;99.90;;;;;;4983469;28;20592;-69
2022/11/14 00:21:31;;;;;;;24.20;10.63;;;6.80;99.90;;;;;;4980417;28;20047;-69
2022/11/14 00:23:56;;;;;;;24.27;9.40;;;6.80;99.90;;;;;;4977994;28;20059;-70
2022/11/14 00:26:22;;;;;;;25.47;10.10;;;6.80;99.90;;;;;;4977004;28;20144;-69
2022/11/14 00:28:47;;;;;;;26.10;10.37;;;6.80;99.90;;;;;;4984070;28;20492;-69
2022/11/14 00:31:13;;;;;;;25.23;10.53;;;6.90;99.90;;;;;;4977585;28;20258;-69
2022/11/14 00:33:38;;;;;;;24.40;10.83;;;6.80;99.90;;;;;;4975968;28;20383;-69
2022/11/14 00:36:05;;;;;;;21.30;9.37;;;6.90;99.90;;;;;;4980121;28;20054;-70
2022/11/14 00:38:30;;;;;;;23.23;8.70;;;6.90;99.90;;;;;;4979084;28;20042;-69
2022/11/14 00:40:56;;;;;;;24.40;10.27;;;6.90;99.90;;;;;;4981554;28;20440;-69
2022/11/14 00:43:22;;;;;;;21.93;9.40;;;7.00;99.90;;;;;;4974869;28;20046;-69
2022/11/14 00:45:48;;;;;;;23.83;9.27;;;7.00;99.90;;;;;;4980624;28;20074;-69
2022/11/14 00:48:14;;;;;;;22.00;9.50;;;7.00;99.90;;;;;;4983152;28;20098;-70
2022/11/14 00:50:40;;;;;;;22.60;9.50;;;7.00;99.90;;;;;;4966102;28;20500;-69
2022/11/14 00:53:06;;;;;;;24.40;10.25;;;7.00;99.90;;;;;;4979875;28;20116;-69
2022/11/14 00:55:31;;;;;;;20.27;9.57;;;7.00;99.90;;;;;;4981676;28;20058;-69
2022/11/14 00:57:57;;;;;;;22.60;9.93;;;7.00;99.90;;;;;;4980397;28;20373;-69
2022/11/14 01:00:23;;;;;;;19.20;8.83;;;7.00;99.90;;;;;;4981942;28;20038;-69
2022/11/14 01:02:48;;;;;;;20.70;9.07;;;7.10;99.90;;;;;;4979615;28;20129;-69
2022/11/14 01:05:14;;;;;;;20.20;8.47;;;7.10;99.90;;;;;;4979540;28;20042;-69
2022/11/14 01:07:39;;;;;;;21.97;9.33;;;7.10;99.90;;;;;;4974577;28;20173;-69
2022/11/14 01:10:06;;;;;;;21.53;9.33;;;7.10;99.90;;;;;;4980270;28;20034;-69
2022/11/14 01:12:33;;;;;;;21.08;8.95;;;7.10;99.90;;;;;;4972560;28;20153;-72
2022/11/14 01:14:58;;;;;;;22.08;9.43;;;7.10;99.90;;;;;;4977295;28;20097;-70
2022/11/14 01:17:27;;;;;;;18.73;8.63;;;7.10;99.90;;;;;;4981936;28;20077;-70
2022/11/14 01:19:53;;;;;;;22.42;8.82;;;7.10;99.90;;;;;;4982975;28;20057;-70
2022/11/14 01:22:19;;;;;;;19.15;8.70;;;7.10;99.90;;;;;;4977346;28;20491;-70
2022/11/14 01:24:44;;;;;;;21.70;9.83;;;7.10;99.90;;;;;;4974306;28;20046;-70
2022/11/14 01:27:10;;;;;;;24.40;9.70;;;7.20;99.90;;;;;;4977535;28;20129;-70
2022/11/14 01:29:35;;;;;;;23.97;10.03;;;7.10;99.90;;;;;;4980431;28;20381;-70
2022/11/14 01:32:01;;;;;;;20.70;9.67;;;7.20;99.90;;;;;;4976960;28;20106;-70
2022/11/14 01:34:28;;;;;;;20.37;9.87;;;7.20;99.90;;;;;;4978539;28;20062;-70
2022/11/14 01:36:54;;;;;;;22.25;9.38;;;7.10;99.90;;;;;;4974550;28;20393;-70
2022/11/14 01:39:19;;;;;;;21.63;9.83;;;7.20;99.90;;;;;;4976695;28;21055;-70
2022/11/14 01:41:45;;;;;;;22.30;10.00;;;7.20;99.90;;;;;;4954502;28;20043;-71
2022/11/14 01:44:39;;;;;;;21.53;10.43;;;7.20;99.90;;;;;;4977693;28;20105;-70
2022/11/14 01:47:05;;;;;;;21.60;10.35;;;7.20;99.90;;;;;;4972779;28;20496;-70
2022/11/14 01:49:37;;;;;;;25.10;9.63;;;7.20;99.90;;;;;;4973996;28;20055;-71
2022/11/14 01:52:30;;;;;;;20.70;10.40;;;7.20;99.90;;;;;;4980358;28;20046;-70
2022/11/14 01:54:58;;;;;;;21.73;9.95;;;7.20;99.90;;;;;;4973527;28;20502;-70
2022/11/14 01:57:31;;;;;;;21.98;10.75;;;7.20;99.90;;;;;;4974318;28;20372;-70
2022/11/14 02:00:00;;;;;;;26.95;10.75;;;7.20;99.90;;;;;;4974919;28;20038;-71
2022/11/14 02:02:26;;;;;;;24.40;10.90;;;7.20;99.90;;;;;;4976520;28;20038;-70
2022/11/14 02:05:04;;;;;;;23.50;10.67;;;7.20;99.90;;;;;;4975870;28;20050;-70
2022/11/14 02:07:34;;;;;;;22.80;11.27;;;7.20;99.90;;;;;;4977025;28;20400;-71
2022/11/14 02:10:05;;;;;;;26.83;11.25;;;7.20;99.90;;;;;;4980215;28;20165;-70
2022/11/14 02:12:31;;;;;;;21.98;10.15;;;7.20;99.90;;;;;;4976342;28;20058;-71
2022/11/14 02:14:58;;;;;;;28.15;12.63;;;7.20;99.90;;;;;;4977120;28;20069;-70
2022/11/14 02:17:24;;;;;;;;;;;7.20;99.90;;;;;;4977965;28;20073;-69
2022/11/14 02:20:10;;;;;;;26.73;11.80;;;7.20;99.90;;;;;;4982101;28;20321;-69
2022/11/14 02:22:36;;;;;;;24.58;11.85;;;7.20;99.90;;;;;;4957481;28;20055;-75
2022/11/14 02:25:02;;;;;;;;;;;7.20;99.90;;;;;;4981921;28;20137;-69
2022/11/14 02:27:30;;;;;;;33.30;13.38;;;7.20;99.90;;;;;;4986443;28;20020;-69
2022/11/14 02:30:08;;;;;;;25.90;12.27;;;7.20;99.90;;;;;;4974954;28;20420;-69
2022/11/14 02:32:33;;;;;;;27.83;12.73;;;7.20;99.90;;;;;;4976053;28;20461;-69
2022/11/14 02:34:59;;;;;;;28.70;12.30;;;7.20;99.90;;;;;;4980954;28;20038;-69
2022/11/14 02:37:25;;;;;;;31.83;14.33;;;7.10;99.90;;;;;;4978029;28;20357;-69
2022/11/14 02:39:50;;;;;;;30.87;13.53;;;7.10;99.90;;;;;;4975027;28;20038;-69
2022/11/14 02:42:16;;;;;;;29.93;13.03;;;7.20;99.90;;;;;;4973604;28;20472;-69
2022/11/14 02:44:41;;;;;;;28.83;13.70;;;7.10;99.90;;;;;;4977405;28;20330;-69
2022/11/14 02:47:07;;;;;;;27.33;13.10;;;7.10;99.90;;;;;;4978682;28;20050;-69
2022/11/14 02:49:33;;;;;;;30.23;13.50;;;7.10;99.90;;;;;;4986796;28;20043;-69
2022/11/14 02:51:58;;;;;;;33.17;14.33;;;7.20;99.90;;;;;;4960941;28;20048;-69
2022/11/14 02:54:24;;;;;;;28.80;13.30;;;7.10;99.90;;;;;;4977587;28;20046;-69
2022/11/14 02:56:49;;;;;;;30.07;13.87;;;7.10;99.90;;;;;;4978240;28;20113;-69
2022/11/14 02:59:15;;;;;;;30.80;13.10;;;7.20;99.90;;;;;;4980371;28;20396;-69
2022/11/14 03:01:41;;;;;;;31.00;14.00;;;7.20;99.90;;;;;;4977302;28;20053;-69
2022/11/14 03:04:06;;;;;;;28.83;13.27;;;7.20;99.90;;;;;;4974140;28;20031;-69
2022/11/14 03:06:32;;;;;;;27.83;13.87;;;7.20;99.90;;;;;;4983342;28;20129;-75
2022/11/14 03:08:57;;;;;;;30.70;14.10;;;7.20;99.90;;;;;;4989375;28;20611;-69
2022/11/14 03:11:23;;;;;;;35.40;16.73;;;7.20;99.90;;;;;;4976426;28;20457;-69
2022/11/14 03:13:49;;;;;;;38.40;15.87;;;7.20;99.90;;;;;;4978340;28;20498;-69
2022/11/14 03:16:14;;;;;;;36.27;16.50;;;7.20;99.90;;;;;;4980269;28;20207;-69
2022/11/14 03:18:40;;;;;;;37.87;16.60;;;7.10;99.90;;;;;;4980247;28;20506;-70
2022/11/14 03:21:12;;;;;;;39.03;15.35;;;7.20;99.90;;;;;;4981299;28;20053;-69
2022/11/14 03:23:37;;;;;;;33.63;15.55;;;7.20;99.90;;;;;;4983576;28;20121;-70
2022/11/14 03:26:06;;;;;;;35.93;16.80;;;7.20;99.90;;;;;;5002935;23;20129;-66
2022/11/14 03:28:32;;;;;;;42.17;18.38;;;7.10;99.90;;;;;;4999573;28;20089;-66
2022/11/14 03:30:57;;;;;;;39.63;17.57;;;7.10;99.90;;;;;;5005666;28;20069;-67
2022/11/14 03:33:23;;;;;;;41.43;16.97;;;7.10;99.90;;;;;;4997043;28;20276;-67
2022/11/14 03:35:50;;;;;;;41.22;18.38;;;7.10;99.90;;;;;;4977927;28;20102;-66
2022/11/14 03:38:16;;;;;;;;;;;7.10;99.90;;;;;;5007354;28;20038;-66
2022/11/14 03:40:42;;;;;;;40.60;16.67;;;7.10;99.90;;;;;;5010184;28;20380;-67
2022/11/14 03:43:07;;;;;;;40.23;17.10;;;7.10;99.90;;;;;;4980220;28;20037;-67
2022/11/14 03:45:35;;;;;;;34.23;16.33;;;7.10;99.90;;;;;;5003598;28;20451;-67
2022/11/14 03:48:00;;;;;;;42.45;17.08;;;7.10;99.90;;;;;;4998783;28;20503;-67
2022/11/14 03:50:26;;;;;;;40.20;17.93;;;7.10;99.90;;;;;;4993370;28;20041;-67
2022/11/14 03:52:51;;;;;;;38.00;17.97;;;7.10;99.90;;;;;;4980824;28;20484;-68
2022/11/14 03:55:17;;;;;;;43.03;17.83;;;7.10;99.90;;;;;;4983245;28;20391;-67
2022/11/14 03:57:42;;;;;;;43.40;18.77;;;7.00;99.90;;;;;;4999434;28;20033;-68
2022/11/14 04:00:09;;;;;;;39.90;17.17;;;7.10;99.90;;;;;;4999462;28;20096;-68
2022/11/14 04:02:34;;;;;;;43.38;19.08;;;7.00;99.90;;;;;;4989772;28;20096;-68
2022/11/14 04:05:00;;;;;;;42.00;17.23;;;7.00;99.90;;;;;;5001841;28;20451;-68
2022/11/14 04:07:26;;;;;;;41.05;17.63;;;7.00;99.90;;;;;;4982093;28;21703;-68
2022/11/14 04:09:51;;;;;;;39.03;17.07;;;7.00;99.90;;;;;;5001438;28;20058;-68
2022/11/14 04:12:17;;;;;;;40.73;17.00;;;7.00;99.90;;;;;;4985147;28;20041;-68
2022/11/14 04:14:43;;;;;;;42.22;18.27;;;7.10;99.90;;;;;;5002443;28;20427;-68
2022/11/14 04:17:09;;;;;;;40.75;18.48;;;7.00;99.90;;;;;;5002431;28;20042;-68
2022/11/14 04:19:34;;;;;;;40.17;17.63;;;7.00;99.90;;;;;;5010638;28;20682;-68
2022/11/14 04:22:00;;;;;;;42.77;18.63;;;7.00;99.90;;;;;;4986061;28;20065;-68
2022/11/14 04:24:26;;;;;;;42.30;17.40;;;7.00;99.90;;;;;;4986316;28;20235;-68
2022/11/14 04:26:52;;;;;;;43.10;17.83;;;7.00;99.90;;;;;;4987685;28;20081;-68
2022/11/14 04:29:17;;;;;;;38.67;16.93;;;7.00;99.90;;;;;;5004122;28;20033;-67
2022/11/14 04:31:43;;;;;;;39.23;17.63;;;7.00;99.90;;;;;;5007552;28;20045;-68
2022/11/14 04:34:08;;;;;;;38.83;17.83;;;7.00;99.90;;;;;;5004575;28;20525;-68
2022/11/14 04:36:34;;;;;;;42.20;16.23;;;6.90;99.90;;;;;;5003789;28;20042;-68
2022/11/14 04:39:00;;;;;;;39.83;17.07;;;7.00;99.90;;;;;;4991661;28;20166;-67
2022/11/14 04:41:25;;;;;;;36.95;16.00;;;7.00;99.90;;;;;;4981618;28;20381;-68
2022/11/14 04:43:51;;;;;;;43.07;17.90;;;7.00;99.90;;;;;;4994855;28;20048;-67
2022/11/14 04:46:17;;;;;;;39.43;17.43;;;6.90;99.90;;;;;;5004572;28;20053;-67
2022/11/14 04:48:42;;;;;;;39.23;18.27;;;7.00;99.90;;;;;;4985474;28;20112;-68
2022/11/14 04:51:08;;;;;;;35.63;16.30;;;6.90;99.90;;;;;;4990625;28;20048;-68
2022/11/14 04:53:33;;;;;;;41.10;18.13;;;6.90;99.90;;;;;;4989145;28;20103;-67
2022/11/14 04:56:02;;;;;;;44.97;18.92;;;6.90;99.90;;;;;;4993488;28;20069;-68
2022/11/14 04:58:27;;;;;;;41.83;17.83;;;6.90;99.90;;;;;;4978191;28;20141;-68
2022/11/14 05:00:53;;;;;;;40.50;16.70;;;6.90;99.90;;;;;;5003567;28;20030;-68
2022/11/14 05:03:19;;;;;;;38.53;16.53;;;6.90;99.90;;;;;;4990023;28;20044;-68
2022/11/14 05:05:45;;;;;;;33.57;15.03;;;6.90;99.90;;;;;;5005324;28;20045;-68
2022/11/14 05:08:10;;;;;;;35.38;15.68;;;6.90;99.90;;;;;;5002070;28;20053;-68
2022/11/14 05:10:36;;;;;;;36.30;17.10;;;6.80;99.90;;;;;;5002290;28;20046;-68
2022/11/14 05:13:02;;;;;;;40.43;16.50;;;6.80;99.90;;;;;;5006472;28;20048;-67
2022/11/14 05:15:27;;;;;;;44.00;17.60;;;6.80;99.90;;;;;;4983358;28;20050;-68
2022/11/14 05:17:53;;;;;;;34.93;16.03;;;6.90;99.90;;;;;;4997746;28;20042;-68
2022/11/14 05:20:18;;;;;;;43.63;17.77;;;6.80;99.90;;;;;;5004778;28;20034;-68
2022/11/14 05:22:44;;;;;;;41.03;18.07;;;6.80;99.90;;;;;;5003056;28;20495;-68
2022/11/14 05:25:10;;;;;;;37.50;16.27;;;6.80;99.90;;;;;;5000760;28;20085;-68
2022/11/14 05:27:35;;;;;;;38.05;16.73;;;6.80;99.90;;;;;;4998873;28;20393;-68
2022/11/14 05:30:01;;;;;;;42.07;17.87;;;6.80;99.90;;;;;;4996145;28;20046;-67
2022/11/14 05:32:27;;;;;;;40.57;17.50;;;6.80;99.90;;;;;;4987149;28;20205;-70
2022/11/14 05:34:52;;;;;;;35.70;15.57;;;6.80;99.90;;;;;;4984956;28;20783;-68
2022/11/14 05:37:18;;;;;;;34.47;15.73;;;6.80;99.90;;;;;;5004646;28;20160;-70
2022/11/14 05:39:43;;;;;;;36.20;16.33;;;6.80;99.90;;;;;;5000947;28;20118;-67
2022/11/14 05:42:09;;;;;;;38.13;16.40;;;6.80;99.90;;;;;;4982841;28;20040;-68
2022/11/14 05:44:34;;;;;;;41.43;17.60;;;6.80;99.90;;;;;;4981140;28;20140;-68
2022/11/14 05:47:00;;;;;;;37.37;17.30;;;6.80;99.90;;;;;;4984807;28;20046;-68
2022/11/14 05:49:26;;;;;;;39.63;18.40;;;6.80;99.90;;;;;;5002634;28;20068;-68
2022/11/14 05:51:51;;;;;;;40.33;15.70;;;6.80;99.90;;;;;;4985141;28;20038;-68
2022/11/14 05:54:17;;;;;;;37.90;16.90;;;6.80;99.90;;;;;;4995646;28;20508;-68
2022/11/14 05:56:42;;;;;;;33.60;16.23;;;6.80;99.90;;;;;;4998086;28;20386;-68
2022/11/14 05:59:08;;;;;;;35.97;17.27;;;6.80;99.90;;;;;;5004777;28;20048;-68
2022/11/14 06:01:34;;;;;;;39.10;16.87;;;6.80;99.90;;;;;;5001144;28;20121;-68
2022/11/14 06:03:59;;;;;;;38.47;16.80;;;6.80;99.90;;;;;;5008169;28;20045;-68
2022/11/14 06:06:25;;;;;;;40.70;16.87;;;6.80;99.90;;;;;;5005491;28;20038;-68
2022/11/14 06:08:52;;;;;;;39.13;16.43;;;6.80;99.90;;;;;;4992679;28;20037;-68
2022/11/14 06:11:19;;;;;;;38.33;16.60;;;6.80;99.90;;;;;;5000255;28;20070;-68
2022/11/14 06:13:45;;;;;;;34.90;16.85;;;6.80;99.90;;;;;;5002975;28;20034;-68
2022/11/14 06:16:13;;;;;;;35.17;15.10;;;6.80;99.90;;;;;;5004987;28;20077;-68
2022/11/14 06:18:39;;;;;;;40.97;17.92;;;6.80;99.90;;;;;;5005773;28;20229;-68
2022/11/14 06:21:06;;;;;;;41.05;16.90;;;6.90;99.90;;;;;;5003521;28;20034;-68
2022/11/14 06:23:32;;;;;;;41.08;17.58;;;6.80;99.90;;;;;;4991674;28;20121;-68
2022/11/14 06:25:59;;;;;;;37.97;17.20;;;6.90;99.90;;;;;;5003911;28;20122;-68
2022/11/14 06:28:25;;;;;;;36.80;16.83;;;6.90;99.90;;;;;;4983226;28;20046;-69
2022/11/14 06:30:50;;;;;;;34.97;15.93;;;6.80;99.90;;;;;;5003327;28;20490;-68
2022/11/14 06:33:16;;;;;;;37.13;16.60;;;6.80;99.90;;;;;;5004537;28;20208;-68
2022/11/14 06:35:42;;;;;;;36.00;16.67;;;6.80;99.90;;;;;;5002906;28;20049;-68
2022/11/14 06:38:07;;;;;;;39.33;17.20;;;6.90;99.90;;;;;;4997924;28;20571;-68
2022/11/14 06:40:33;;;;;;;38.23;15.77;;;6.80;99.90;;;;;;4984389;28;20102;-68
2022/11/14 06:42:58;;;;;;;38.50;17.77;;;6.80;99.90;;;;;;5001272;28;20066;-67
2022/11/14 06:45:24;;;;;;;38.60;17.00;;;6.80;99.90;;;;;;4997748;28;20073;-68
2022/11/14 06:47:49;;;;;;;34.93;15.47;;;6.80;99.90;;;;;;5001241;28;20049;-68
2022/11/14 06:50:15;;;;;;;42.50;17.07;;;6.80;99.90;;;;;;5004774;28;20042;-74
2022/11/14 06:52:41;;;;;;;39.57;17.97;;;6.80;99.90;;;;;;4984595;28;20699;-68
2022/11/14 06:55:06;;;;;;;44.17;17.77;;;6.70;99.90;;;;;;4985784;28;20049;-69
2022/11/14 06:57:32;;;;;;;33.60;15.87;;;6.80;99.90;;;;;;4983680;28;20085;-70
2022/11/14 06:59:58;;;;;;;35.73;16.57;;;6.70;99.90;;;;;;4996810;28;20287;-68
2022/11/14 07:02:23;;;;;;;41.50;17.27;;;6.70;99.90;;;;;;4998137;28;20034;-68
2022/11/14 07:04:49;;;;;;;36.50;15.27;;;6.70;99.90;;;;;;5006258;28;20038;-68
2022/11/14 07:07:14;;;;;;;38.67;16.57;;;6.80;99.90;;;;;;5000886;28;20044;-68
2022/11/14 07:09:40;;;;;;;36.10;15.13;;;6.70;99.90;;;;;;5006509;28;20518;-68
2022/11/14 07:12:07;;;;;;;41.77;17.13;;;6.70;99.90;;;;;;5002291;28;20080;-67
2022/11/14 07:14:33;;;;;;;37.15;17.75;;;6.70;99.90;;;;;;5004280;28;20498;-68
2022/11/14 07:16:59;;;;;;;41.40;17.17;;;6.70;99.90;;;;;;5003775;28;20122;-68
2022/11/14 07:19:25;;;;;;;45.53;19.45;;;6.80;99.90;;;;;;4999938;28;20519;-68
2022/11/14 07:21:50;;;;;;;42.03;17.00;;;6.70;99.90;;;;;;4994350;28;20046;-67
2022/11/14 07:24:16;;;;;;;38.80;18.00;;;6.70;99.90;;;;;;4980149;28;20056;-68
2022/11/14 07:26:41;;;;;;;42.77;18.13;;;6.80;99.90;;;;;;4984411;28;20169;-69
2022/11/14 07:29:07;;;;;;;39.20;17.60;;;6.80;99.90;;;;;;4981853;28;20088;-68
2022/11/14 07:31:33;;;;;;;36.40;16.40;;;6.80;99.90;;;;;;5005064;28;20129;-68
2022/11/14 07:34:01;;;;;;;36.43;15.87;;;6.80;99.90;;;;;;5000031;28;20065;-69
2022/11/14 07:36:26;;;;;;;38.45;16.35;;;6.80;99.90;;;;;;5004500;28;20475;-68
2022/11/14 07:38:53;;;;;;;37.80;16.60;;;6.80;99.90;;;;;;5007252;28;20069;-68
2022/11/14 07:41:18;;;;;;;44.85;18.90;;;6.80;99.90;;;;;;5002647;28;20457;-68
2022/11/14 07:43:44;;;;;;;44.63;18.83;;;6.80;99.90;;;;;;4998725;28;20042;-68
2022/11/14 07:46:16;;;;;;;39.08;17.50;;;6.80;99.90;;;;;;4979900;28;20587;-68
2022/11/14 07:48:42;;;;;;;40.45;17.88;;;6.80;99.90;;;;;;4988685;28;20458;-68
2022/11/14 07:51:15;;;;;;;40.75;16.80;;;6.80;99.90;;;;;;5006294;28;20058;-68
2022/11/14 07:53:41;;;;;;;38.28;16.95;;;6.80;99.90;;;;;;5006225;28;20566;-68
2022/11/14 07:56:08;;;;;;;39.78;16.48;;;6.80;99.90;;;;;;4987764;28;20107;-68
2022/11/14 07:58:35;;;;;;;46.35;19.15;;;6.80;99.90;;;;;;5005512;28;20119;-68
2022/11/14 08:01:01;;;;;;;42.33;18.05;;;6.80;99.90;;;;;;5006407;28;20053;-68
2022/11/14 08:03:27;;;;;;;39.85;17.17;;;6.80;99.90;;;;;;4999022;28;20118;-68
2022/11/14 08:06:14;;;;;;;48.80;17.42;;;6.80;99.90;;;;;;5000568;28;20145;-69
2022/11/14 08:08:40;;;;;;;39.90;18.42;;;6.80;99.90;;;;;;5002662;28;20053;-68
2022/11/14 08:11:05;;;;;;;39.00;17.50;;;6.80;99.90;;;;;;5000907;28;20666;-68
2022/11/14 08:13:31;;;;;;;48.33;18.17;;;6.90;99.90;;;;;;4986332;28;20108;-68
2022/11/14 08:15:58;;;;;;;41.65;19.02;;;6.80;99.90;;;;;;5004574;28;20045;-68
2022/11/14 08:18:24;;;;;;;43.38;18.13;;;6.90;99.90;;;;;;5004337;28;20495;-68
2022/11/14 08:20:50;;;;;;;37.88;17.67;;;6.80;99.90;;;;;;4999113;28;20124;-68
2022/11/14 08:23:16;;;;;;;44.17;18.80;;;6.80;99.90;;;;;;4991743;28;20061;-68
2022/11/14 08:25:41;;;;;;;45.27;16.87;;;6.90;99.90;;;;;;4994056;28;20438;-68
2022/11/14 08:28:07;;;;;;;41.40;18.40;;;6.90;99.90;;;;;;4986261;28;20540;-68
2022/11/14 08:30:33;;;;;;;40.33;16.50;;;6.80;99.90;;;;;;5004165;28;20566;-68
2022/11/14 08:33:06;;;;;;;39.30;17.33;;;6.80;99.90;;;;;;5003698;28;20037;-68
2022/11/14 08:35:32;;;;;;;39.90;17.45;;;6.80;99.90;;;;;;5006536;28;20311;-68
2022/11/14 08:38:00;;;;;;;43.60;16.85;;;6.80;99.90;;;;;;4985871;28;20029;-68
2022/11/14 08:40:26;;;;;;;46.10;19.35;;;6.80;99.90;;;;;;5001303;28;20042;-68
2022/11/14 08:42:57;;;;;;;38.30;17.00;;;6.80;99.90;;;;;;5010826;28;20111;-68
2022/11/14 08:45:22;;;;;;;40.15;18.35;;;6.80;99.90;;;;;;4989931;28;20057;-68
2022/11/14 08:47:52;;;;;;;38.73;16.67;;;6.90;99.90;;;;;;4980802;28;20511;-68
2022/11/14 08:50:17;;;;;;;41.03;17.58;;;6.90;99.90;;;;;;4988174;28;20144;-68
2022/11/14 08:52:49;;;;;;;42.23;17.53;;;7.00;99.90;;;;;;5006931;28;20450;-68
2022/11/14 08:55:14;;;;;;;39.85;17.30;;;7.00;99.90;;;;;;4967156;28;20049;-68
2022/11/14 08:57:40;;;;;;;40.07;17.60;;;7.00;99.90;;;;;;4985650;28;20441;-68
2022/11/14 09:00:06;;;;;;;40.67;18.40;;;7.00;99.90;;;;;;4987178;28;20038;-68
2022/11/14 09:02:32;;;;;;;39.85;17.70;;;7.00;99.90;;;;;;4987661;28;20042;-68
2022/11/14 09:04:58;;;;;;;40.50;17.47;;;7.00;99.90;;;;;;5000519;28;20052;-68
2022/11/14 09:07:23;;;;;;;48.07;18.87;;;7.00;99.90;;;;;;5001325;28;20510;-68
2022/11/14 09:09:49;;;;;;;44.30;20.20;;;7.00;99.90;;;;;;5004729;28;20040;-68
2022/11/14 09:12:16;;;;;;;38.70;17.00;;;7.00;99.90;;;;;;5001401;28;20049;-68
2022/11/14 09:14:42;;;;;;;43.33;17.23;;;7.00;99.90;;;;;;4979012;28;20046;-68
2022/11/14 09:17:07;;;;;;;42.73;18.40;;;7.00;99.90;;;;;;4999546;28;20092;-68
2022/11/14 09:19:33;;;;;;;42.23;17.80;;;7.10;99.90;;;;;;5004428;28;20049;-68
2022/11/14 09:21:58;;;;;;;38.00;16.97;;;7.10;99.90;;;;;;5008962;28;20496;-68
2022/11/14 09:24:24;;;;;;;41.13;17.07;;;7.10;99.90;;;;;;4987777;28;20046;-68
2022/11/14 09:31:23;;;;;;;;;;;;;;;;;;;;;
2022/11/14 09:37:23;;;;;;;43.15;17.40;;;7.30;99.90;;;;;;4962452;28;20047;-85
2022/11/14 09:39:52;;;;;;;39.95;16.52;;;7.30;99.90;;;;;;4933376;28;20399;-86
2022/11/14 09:42:58;;;;;;;41.20;18.05;;;7.40;99.90;;;;;;4930154;28;20054;-86
2022/11/14 09:53:44;;;;;;;36.70;15.90;;;7.60;99.90;;;;;;4936596;28;20501;-84
2022/11/14 10:00:38;;;;;;;36.40;16.40;;;7.80;99.90;;;;;;4944834;28;20070;-84
2022/11/14 10:03:48;;;;;;;;;;;;;;;;;;;;;
2022/11/14 10:06:31;;;;;;;39.22;15.75;;;7.80;99.90;;;;;;4964379;22;20496;-72
2022/11/14 10:09:34;;;;;;;37.22;16.38;;;7.80;99.90;;;;;;4981462;28;20038;-71
2022/11/14 10:12:16;;;;;;;33.97;15.05;;;7.80;99.90;;;;;;4986044;28;20038;-70
2022/11/14 10:14:56;;;;;;;34.13;15.52;;;7.90;99.90;;;;;;4980249;28;20053;-70
2022/11/14 10:17:37;;;;;;;36.17;15.60;;;8.00;99.90;;;;;;4984543;28;20075;-70
2022/11/14 10:20:13;;;;;;;33.45;15.25;;;8.10;99.90;;;;;;4978890;28;20560;-69
2022/11/14 10:22:57;;;;;;;39.75;16.48;;;8.10;99.90;;;;;;4984388;28;20038;-71
2022/11/14 10:25:53;;;;;;;37.40;15.98;;;8.10;99.90;;;;;;4987922;28;20034;-70
2022/11/14 10:29:06;;;;;;;33.65;15.32;;;8.10;99.90;;;;;;4983476;28;20183;-70
2022/11/14 10:31:44;;;;;;;35.85;15.27;;;8.20;99.90;;;;;;4947852;28;20535;-70
2022/11/14 10:34:20;;;;;;;32.42;14.27;;;8.30;99.90;;;;;;4992122;28;20042;-70
2022/11/14 10:36:57;;;;;;;39.15;16.40;;;8.30;99.90;;;;;;4985952;28;20041;-69
2022/11/14 10:39:48;;;;;;;31.83;16.02;;;8.40;99.90;;;;;;4986546;28;20069;-70
2022/11/14 10:42:21;;;;;;;34.20;15.35;;;8.50;99.90;;;;;;4983514;28;20034;-71
2022/11/14 10:44:56;;;;;;;41.17;15.82;;;8.60;99.90;;;;;;4993515;28;20420;-70
2022/11/14 10:47:24;;;;;;;34.05;14.73;;;8.60;99.90;;;;;;4987877;28;20112;-72
2022/11/14 10:49:54;;;;;;;35.83;15.60;;;8.80;99.90;;;;;;4981698;28;20069;-71
2022/11/14 10:52:25;;;;;;;31.52;14.55;;;8.80;99.90;;;;;;4986728;28;20415;-69
2022/11/14 10:55:02;;;;;;;37.50;14.93;;;8.80;99.90;;;;;;4996065;28;20038;-69
2022/11/14 10:57:28;;;;;;;31.70;14.80;;;8.90;99.90;;;;;;4989474;28;20042;-71
2022/11/14 10:59:54;;;;;;;34.58;15.05;;;9.00;99.90;;;;;;4987729;28;20049;-70
2022/11/14 11:02:20;;;;;;;37.53;16.20;;;9.00;99.90;;;;;;4985483;28;20035;-75
2022/11/14 11:04:45;;;;;;;33.70;15.93;;;9.00;99.90;;;;;;4986679;28;20534;-69
2022/11/14 11:11:28;;;;;;;40.03;17.47;;;9.10;99.90;;;;;;4974975;28;20035;-70
2022/11/14 11:12:48;;;;;;;31.98;14.75;;;9.20;99.90;;;;;;4988681;28;20043;-70
2022/11/14 11:15:23;;;;;;;34.03;15.07;;;9.20;99.90;;;;;;4992417;28;20560;-69
2022/11/14 11:17:52;;;;;;;31.65;15.02;;;9.20;99.90;;;;;;4984564;28;20341;-69
2022/11/14 11:20:34;;;;;;;31.27;15.20;;;9.20;99.90;;;;;;4984795;28;20038;-69
2022/11/14 11:23:18;;;;;;;40.80;16.52;;;9.20;99.90;;;;;;4979158;28;20042;-69
2022/11/14 11:25:44;;;;;;;32.38;14.98;;;9.20;99.90;;;;;;4992838;28;20041;-70
2022/11/14 11:28:14;;;;;;;33.47;15.57;;;9.20;99.90;;;;;;4991533;28;20475;-70
2022/11/14 11:30:52;;;;;;;31.27;14.77;;;9.30;99.90;;;;;;4993741;28;20108;-70
2022/11/14 11:33:25;;;;;;;35.75;16.25;;;9.40;99.90;;;;;;4991105;28;20352;-70
2022/11/14 11:35:56;;;;;;;31.85;15.13;;;9.40;99.90;;;;;;4994913;28;20562;-70
2022/11/14 11:38:26;;;;;;;32.72;15.90;;;9.50;99.90;;;;;;4977727;28;20129;-70
2022/11/14 11:40:58;;;;;;;31.77;14.90;;;9.50;99.90;;;;;;5002029;28;20119;-70
2022/11/14 11:43:43;;;;;;;32.00;14.75;;;9.50;99.90;;;;;;4993819;28;20047;-70
2022/11/14 11:46:20;;;;;;;29.88;14.68;;;9.60;99.90;;;;;;4992325;28;20046;-69
2022/11/14 11:48:46;;;;;;;;;;;9.70;99.90;;;;;;4988043;28;20049;-69
2022/11/14 11:51:18;;;;;;;31.88;14.65;;;9.80;99.90;;;;;;4999760;28;19921;-69
2022/11/14 11:54:02;;;;;;;31.30;15.40;;;9.90;99.90;;;;;;4993967;28;20058;-70
2022/11/14 11:56:36;;;;;;;33.08;14.82;;;10.00;99.90;;;;;;4990835;28;20132;-70
2022/11/14 11:59:21;;;;;;;30.90;14.73;;;10.10;99.90;;;;;;4988455;28;20106;-71
2022/11/14 12:01:47;;;;;;;31.17;13.25;;;10.20;99.90;;;;;;4989892;28;20038;-70
2022/11/14 12:04:12;;;;;;;31.30;14.60;;;10.20;99.90;;;;;;4985953;28;20046;-70
2022/11/14 12:06:48;;;;;;;26.67;14.37;;;10.20;99.90;;;;;;4988121;28;20111;-70
2022/11/14 12:09:22;;;;;;;28.42;13.77;;;10.30;99.90;;;;;;4988308;28;20408;-70
2022/11/14 12:12:04;;;;;;;32.97;15.20;;;10.40;99.90;;;;;;4986836;28;20046;-70
2022/11/14 12:14:54;;;;;;;26.40;12.95;;;10.40;99.90;;;;;;4986641;28;20051;-70
2022/11/14 12:17:44;;;;;;;28.55;14.63;;;10.40;99.90;;;;;;4987306;28;20058;-70
2022/11/14 12:20:28;;;;;;;27.45;14.15;;;10.50;99.90;;;;;;4980469;28;20118;-69
2022/11/14 12:23:00;;;;;;;29.10;12.55;;;10.50;99.90;;;;;;4979966;28;20190;-69
2022/11/14 12:25:32;;;;;;;29.15;14.00;;;10.60;99.90;;;;;;4986625;28;20048;-69
2022/11/14 12:28:07;;;;;;;28.45;14.90;;;10.60;99.90;;;;;;4981681;28;20411;-70
2022/11/14 12:30:35;;;;;;;30.15;14.23;;;10.70;99.90;;;;;;4983630;28;20049;-69
2022/11/14 12:33:20;;;;;;;27.85;14.85;;;10.70;99.90;;;;;;4986440;28;20049;-70
2022/11/14 12:36:04;;;;;;;33.03;14.77;;;10.70;99.90;;;;;;4982987;28;20138;-70
2022/11/14 12:38:49;;;;;;;31.02;14.75;;;10.70;99.90;;;;;;4973374;28;20051;-70
2022/11/14 12:41:33;;;;;;;29.48;14.07;;;10.70;99.90;;;;;;4988943;28;20054;-70
2022/11/14 12:44:30;;;;;;;25.77;13.40;;;10.70;99.90;;;;;;4989689;28;20042;-70
2022/11/14 12:47:05;;;;;;;32.20;14.05;;;10.70;99.90;;;;;;4988507;28;20048;-70
2022/11/14 12:49:46;;;;;;;28.10;13.02;;;10.70;99.90;;;;;;4985973;28;20317;-70
2022/11/14 12:52:40;;;;;;;28.33;14.90;;;10.70;99.90;;;;;;4987277;28;20085;-70
2022/11/14 12:55:25;;;;;;;27.10;13.65;;;10.70;99.90;;;;;;5011080;28;20483;-70
2022/11/14 12:58:11;;;;;;;27.83;13.35;;;10.80;99.90;;;;;;4932175;28;20050;-70
2022/11/14 13:00:59;;;;;;;27.63;13.98;;;10.80;99.90;;;;;;4986001;28;20100;-70
2022/11/14 13:03:30;;;;;;;25.02;12.27;;;10.80;99.90;;;;;;4993170;28;20050;-70
2022/11/14 13:06:02;;;;;;;22.85;12.50;;;10.70;99.90;;;;;;4981124;28;20081;-71
2022/11/14 13:08:56;;;;;;;26.33;12.85;;;10.80;99.90;;;;;;4985587;28;20377;-70
2022/11/14 13:23:26;;;;;;;26.58;12.82;;;10.80;99.90;;;;;;4987284;28;20351;-70
2022/11/14 13:26:10;;;;;;;24.98;12.90;;;10.90;99.90;;;;;;4969951;28;20131;-70
2022/11/14 13:28:36;;;;;;;29.77;14.13;;;10.90;99.90;;;;;;4985654;28;20042;-70